sensor_id;sensor_type;location;lat;lon;timestamp;pressure;altitude;pressure_sealevel;temperature;humidity
63190;BME280;49286;44.460;26.114;2023-11-21T00:02:20;100210.78;;;6.25;100.00
63190;BME280;49286;44.460;26.114;2023-11-21T00:04:46;100253.69;;;6.47;100.00
63190;BME280;49286;44.460;26.114;2023-11-21T00:07:13;100232.47;;;6.21;100.00
63190;BME280;49286;44.460;26.114;2023-11-21T00:09:40;100266.47;;;6.31;100.00
63190;BME280;49286;44.460;26.114;2023-11-21T00:12:05;100240.31;;;6.24;100.00
63190;BME280;49286;44.460;26.114;2023-11-21T00:14:31;100256.13;;;6.34;100.00
63190;BME280;49286;44.460;26.114;2023-11-21T00:16:56;100346.16;;;6.72;100.00
63190;BME280;49286;44.460;26.114;2023-11-21T00:19:22;100319.06;;;6.62;100.00
63190;BME280;49286;44.460;26.114;2023-11-21T00:21:47;100224.44;;;6.08;100.00
63190;BME280;49286;44.460;26.114;2023-11-21T00:24:13;100237.47;;;6.07;100.00
63190;BME280;49286;44.460;26.114;2023-11-21T00:26:41;100243.44;;;6.01;100.00
63190;BME280;49286;44.460;26.114;2023-11-21T00:29:07;100343.34;;;6.60;100.00
63190;BME280;49286;44.460;26.114;2023-11-21T00:31:48;100253.81;;;5.98;100.00
63190;BME280;49286;44.460;26.114;2023-11-21T00:34:14;100243.38;;;5.95;100.00
63190;BME280;49286;44.460;26.114;2023-11-21T00:36:40;100239.78;;;5.91;100.00
63190;BME280;49286;44.460;26.114;2023-11-21T00:39:05;100263.41;;;6.01;100.00
63190;BME280;49286;44.460;26.114;2023-11-21T00:41:31;100347.53;;;6.47;100.00
63190;BME280;49286;44.460;26.114;2023-11-21T00:43:57;100320.22;;;5.75;100.00
63190;BME280;49286;44.460;26.114;2023-11-21T00:46:31;100228.75;;;5.55;100.00
63190;BME280;49286;44.460;26.114;2023-11-21T00:48:57;100260.50;;;5.84;100.00
63190;BME280;49286;44.460;26.114;2023-11-21T00:51:23;100238.66;;;5.74;100.00
63190;BME280;49286;44.460;26.114;2023-11-21T00:53:49;100339.09;;;6.10;100.00
63190;BME280;49286;44.460;26.114;2023-11-21T00:56:15;100226.19;;;5.56;100.00
63190;BME280;49286;44.460;26.114;2023-11-21T00:58:41;100345.56;;;5.83;100.00
63190;BME280;49286;44.460;26.114;2023-11-21T01:01:09;100244.44;;;5.11;100.00
63190;BME280;49286;44.460;26.114;2023-11-21T01:03:35;100325.31;;;5.68;100.00
63190;BME280;49286;44.460;26.114;2023-11-21T01:06:00;100242.16;;;5.27;100.00
63190;BME280;49286;44.460;26.114;2023-11-21T01:08:26;100352.28;;;5.72;100.00
63190;BME280;49286;44.460;26.114;2023-11-21T01:10:51;100354.53;;;5.98;100.00
63190;BME280;49286;44.460;26.114;2023-11-21T01:13:17;100233.31;;;5.18;100.00
63190;BME280;49286;44.460;26.114;2023-11-21T01:15:42;100206.31;;;5.11;100.00
63190;BME280;49286;44.460;26.114;2023-11-21T01:18:08;100308.28;;;5.87;100.00
63190;BME280;49286;44.460;26.114;2023-11-21T01:20:34;100223.19;;;5.33;100.00
63190;BME280;49286;44.460;26.114;2023-11-21T01:23:00;100320.47;;;5.88;100.00
63190;BME280;49286;44.460;26.114;2023-11-21T01:25:25;100290.25;;;5.48;100.00
63190;BME280;49286;44.460;26.114;2023-11-21T01:27:51;100305.88;;;5.49;100.00
63190;BME280;49286;44.460;26.114;2023-11-21T01:30:17;100341.22;;;5.84;100.00
63190;BME280;49286;44.460;26.114;2023-11-21T01:32:44;100308.06;;;5.74;100.00
63190;BME280;49286;44.460;26.114;2023-11-21T01:35:10;100307.97;;;5.69;100.00
63190;BME280;49286;44.460;26.114;2023-11-21T01:37:37;100333.28;;;5.76;100.00
63190;BME280;49286;44.460;26.114;2023-11-21T01:40:04;100337.53;;;5.72;100.00
63190;BME280;49286;44.460;26.114;2023-11-21T01:42:36;100308.50;;;5.51;100.00
63190;BME280;49286;44.460;26.114;2023-11-21T01:45:02;100317.97;;;5.46;100.00
63190;BME280;49286;44.460;26.114;2023-11-21T01:47:32;100312.94;;;5.55;100.00
63190;BME280;49286;44.460;26.114;2023-11-21T01:49:59;100298.97;;;5.52;100.00
63190;BME280;49286;44.460;26.114;2023-11-21T01:52:25;100221.00;;;5.09;100.00
63190;BME280;49286;44.460;26.114;2023-11-21T01:54:51;100339.88;;;5.57;100.00
63190;BME280;49286;44.460;26.114;2023-11-21T01:57:19;100232.09;;;5.00;100.00
63190;BME280;49286;44.460;26.114;2023-11-21T01:59:46;100351.09;;;5.56;100.00
63190;BME280;49286;44.460;26.114;2023-11-21T02:02:14;100352.38;;;5.33;100.00
63190;BME280;49286;44.460;26.114;2023-11-21T02:04:41;100270.94;;;4.93;100.00
63190;BME280;49286;44.460;26.114;2023-11-21T02:07:06;100185.38;;;4.61;100.00
63190;BME280;49286;44.460;26.114;2023-11-21T02:09:32;100354.34;;;5.02;100.00
63190;BME280;49286;44.460;26.114;2023-11-21T02:11:59;100316.13;;;4.98;100.00
63190;BME280;49286;44.460;26.114;2023-11-21T02:14:26;100377.81;;;5.47;100.00
63190;BME280;49286;44.460;26.114;2023-11-21T02:16:54;100364.94;;;5.54;100.00
63190;BME280;49286;44.460;26.114;2023-11-21T02:19:21;100293.16;;;5.19;100.00
63190;BME280;49286;44.460;26.114;2023-11-21T02:21:56;100334.50;;;5.49;100.00
63190;BME280;49286;44.460;26.114;2023-11-21T02:24:25;100244.03;;;4.91;100.00
63190;BME280;49286;44.460;26.114;2023-11-21T02:26:51;100287.50;;;4.98;100.00
63190;BME280;49286;44.460;26.114;2023-11-21T02:29:20;100330.03;;;5.42;100.00
63190;BME280;49286;44.460;26.114;2023-11-21T02:31:53;100337.97;;;5.48;100.00
63190;BME280;49286;44.460;26.114;2023-11-21T02:34:21;100235.38;;;4.90;100.00
63190;BME280;49286;44.460;26.114;2023-11-21T02:36:47;100254.72;;;5.04;100.00
63190;BME280;49286;44.460;26.114;2023-11-21T02:39:15;100313.50;;;5.40;100.00
63190;BME280;49286;44.460;26.114;2023-11-21T02:41:45;100342.34;;;5.51;100.00
63190;BME280;49286;44.460;26.114;2023-11-21T02:44:10;100213.97;;;4.61;100.00
63190;BME280;49286;44.460;26.114;2023-11-21T02:46:37;100314.19;;;5.30;100.00
63190;BME280;49286;44.460;26.114;2023-11-21T02:49:05;100217.56;;;4.66;100.00
63190;BME280;49286;44.460;26.114;2023-11-21T02:51:36;100322.63;;;5.18;100.00
63190;BME280;49286;44.460;26.114;2023-11-21T02:54:03;100295.84;;;5.22;100.00
63190;BME280;49286;44.460;26.114;2023-11-21T02:56:32;100344.03;;;5.49;100.00
63190;BME280;49286;44.460;26.114;2023-11-21T02:58:59;100211.00;;;4.85;100.00
63190;BME280;49286;44.460;26.114;2023-11-21T03:01:25;100238.13;;;4.98;100.00
63190;BME280;49286;44.460;26.114;2023-11-21T03:03:51;100345.22;;;5.66;100.00
63190;BME280;49286;44.460;26.114;2023-11-21T03:06:21;100337.97;;;5.48;100.00
63190;BME280;49286;44.460;26.114;2023-11-21T03:08:47;100327.56;;;5.48;100.00
63190;BME280;49286;44.460;26.114;2023-11-21T03:11:13;100317.00;;;5.41;100.00
63190;BME280;49286;44.460;26.114;2023-11-21T03:13:42;100268.50;;;5.00;100.00
63190;BME280;49286;44.460;26.114;2023-11-21T03:16:09;100295.69;;;5.16;100.00
63190;BME280;49286;44.460;26.114;2023-11-21T03:18:36;100330.06;;;5.44;100.00
63190;BME280;49286;44.460;26.114;2023-11-21T03:21:02;100255.50;;;4.99;100.00
63190;BME280;49286;44.460;26.114;2023-11-21T03:23:28;100321.03;;;5.26;100.00
63190;BME280;49286;44.460;26.114;2023-11-21T03:25:53;100350.59;;;5.30;100.00
63190;BME280;49286;44.460;26.114;2023-11-21T03:28:19;100347.41;;;5.43;100.00
63190;BME280;49286;44.460;26.114;2023-11-21T03:30:44;100329.31;;;5.07;100.00
63190;BME280;49286;44.460;26.114;2023-11-21T03:33:10;100367.22;;;5.37;100.00
63190;BME280;49286;44.460;26.114;2023-11-21T03:35:36;100317.09;;;5.03;100.00
63190;BME280;49286;44.460;26.114;2023-11-21T03:38:01;100234.31;;;4.39;100.00
63190;BME280;49286;44.460;26.114;2023-11-21T03:40:27;100350.44;;;5.22;100.00
63190;BME280;49286;44.460;26.114;2023-11-21T03:42:52;100328.09;;;4.91;100.00
63190;BME280;49286;44.460;26.114;2023-11-21T03:45:26;100354.88;;;5.28;100.00
63190;BME280;49286;44.460;26.114;2023-11-21T03:47:51;100242.34;;;4.50;100.00
63190;BME280;49286;44.460;26.114;2023-11-21T03:50:23;100342.47;;;5.13;100.00
63190;BME280;49286;44.460;26.114;2023-11-21T03:52:48;100233.94;;;4.22;100.00
63190;BME280;49286;44.460;26.114;2023-11-21T03:55:14;100329.72;;;4.86;100.00
63190;BME280;49286;44.460;26.114;2023-11-21T03:57:40;100333.41;;;4.96;100.00
63190;BME280;49286;44.460;26.114;2023-11-21T04:00:06;100343.13;;;5.04;100.00
63190;BME280;49286;44.460;26.114;2023-11-21T04:02:34;100172.16;;;4.09;100.00
63190;BME280;49286;44.460;26.114;2023-11-21T04:05:01;100264.16;;;4.58;100.00
63190;BME280;49286;44.460;26.114;2023-11-21T04:07:26;100333.56;;;5.02;100.00
63190;BME280;49286;44.460;26.114;2023-11-21T04:09:52;100381.81;;;5.30;100.00
63190;BME280;49286;44.460;26.114;2023-11-21T04:12:19;100382.84;;;5.38;100.00
63190;BME280;49286;44.460;26.114;2023-11-21T04:14:44;100248.84;;;4.71;100.00
63190;BME280;49286;44.460;26.114;2023-11-21T04:17:10;100335.75;;;5.24;100.00
63190;BME280;49286;44.460;26.114;2023-11-21T04:19:36;100375.13;;;5.43;100.00
63190;BME280;49286;44.460;26.114;2023-11-21T04:22:04;100369.56;;;5.24;100.00
63190;BME280;49286;44.460;26.114;2023-11-21T04:24:31;100261.59;;;4.60;100.00
63190;BME280;49286;44.460;26.114;2023-11-21T04:26:56;100276.41;;;4.64;100.00
63190;BME280;49286;44.460;26.114;2023-11-21T04:29:22;100317.00;;;4.98;100.00
63190;BME280;49286;44.460;26.114;2023-11-21T04:31:48;100244.03;;;4.48;100.00
63190;BME280;49286;44.460;26.114;2023-11-21T04:34:14;100250.34;;;4.61;100.00
63190;BME280;49286;44.460;26.114;2023-11-21T04:36:40;100349.59;;;5.23;100.00
63190;BME280;49286;44.460;26.114;2023-11-21T04:39:05;100282.13;;;4.87;100.00
63190;BME280;49286;44.460;26.114;2023-11-21T04:41:32;100158.38;;;4.12;100.00
63190;BME280;49286;44.460;26.114;2023-11-21T04:43:57;100335.34;;;5.04;100.00
63190;BME280;49286;44.460;26.114;2023-11-21T04:46:32;100240.72;;;4.55;100.00
63190;BME280;49286;44.460;26.114;2023-11-21T04:48:58;100359.97;;;5.22;100.00
63190;BME280;49286;44.460;26.114;2023-11-21T04:51:24;100240.31;;;4.37;100.00
63190;BME280;49286;44.460;26.114;2023-11-21T04:53:49;100362.16;;;5.02;100.00
63190;BME280;49286;44.460;26.114;2023-11-21T04:56:15;100259.34;;;4.37;100.00
63190;BME280;49286;44.460;26.114;2023-11-21T04:58:41;100374.25;;;5.00;100.00
63190;BME280;49286;44.460;26.114;2023-11-21T05:01:09;100308.44;;;4.63;100.00
63190;BME280;49286;44.460;26.114;2023-11-21T05:03:35;100292.88;;;4.64;100.00
63190;BME280;49286;44.460;26.114;2023-11-21T05:06:01;100353.59;;;4.68;100.00
63190;BME280;49286;44.460;26.114;2023-11-21T05:08:27;100296.16;;;4.56;100.00
63190;BME280;49286;44.460;26.114;2023-11-21T05:10:52;100339.94;;;4.77;100.00
63190;BME280;49286;44.460;26.114;2023-11-21T05:13:27;100362.63;;;4.84;100.00
63190;BME280;49286;44.460;26.114;2023-11-21T05:15:56;100369.59;;;4.86;100.00
63190;BME280;49286;44.460;26.114;2023-11-21T05:18:25;100270.53;;;4.33;100.00
63190;BME280;49286;44.460;26.114;2023-11-21T05:20:55;100394.72;;;4.86;100.00
63190;BME280;49286;44.460;26.114;2023-11-21T05:23:21;100404.56;;;4.99;100.00
63190;BME280;49286;44.460;26.114;2023-11-21T05:25:47;100380.97;;;4.90;100.00
63190;BME280;49286;44.460;26.114;2023-11-21T05:28:13;100393.50;;;5.08;100.00
63190;BME280;49286;44.460;26.114;2023-11-21T05:30:46;100398.97;;;5.20;100.00
63190;BME280;49286;44.460;26.114;2023-11-21T05:33:12;100400.66;;;5.18;100.00
63190;BME280;49286;44.460;26.114;2023-11-21T05:35:37;100384.59;;;4.97;100.00
63190;BME280;49286;44.460;26.114;2023-11-21T05:41:24;100379.22;;;4.91;100.00
63190;BME280;49286;44.460;26.114;2023-11-21T05:43:57;100406.53;;;5.10;100.00
63190;BME280;49286;44.460;26.114;2023-11-21T05:46:22;100369.84;;;4.97;100.00
63190;BME280;49286;44.460;26.114;2023-11-21T05:55:36;100389.38;;;5.18;100.00
63190;BME280;49286;44.460;26.114;2023-11-21T06:02:01;100414.88;;;5.34;100.00
63190;BME280;49286;44.460;26.114;2023-11-21T06:04:27;100261.25;;;4.44;100.00
63190;BME280;49286;44.460;26.114;2023-11-21T06:06:53;100398.78;;;5.13;100.00
63190;BME280;49286;44.460;26.114;2023-11-21T06:09:19;100420.31;;;5.46;100.00
63190;BME280;49286;44.460;26.114;2023-11-21T06:21:50;100329.94;;;4.95;100.00
63190;BME280;49286;44.460;26.114;2023-11-21T06:24:16;100329.56;;;5.18;100.00
63190;BME280;49286;44.460;26.114;2023-11-21T06:26:42;100387.78;;;5.68;100.00
63190;BME280;49286;44.460;26.114;2023-11-21T06:29:09;100299.25;;;5.21;100.00
63190;BME280;49286;44.460;26.114;2023-11-21T06:35:00;100406.03;;;6.14;100.00
63190;BME280;49286;44.460;26.114;2023-11-21T06:37:26;100267.41;;;5.32;100.00
63190;BME280;49286;44.460;26.114;2023-11-21T06:39:53;100298.22;;;5.57;100.00
63190;BME280;49286;44.460;26.114;2023-11-21T06:42:19;100302.69;;;5.64;100.00
63190;BME280;49286;44.460;26.114;2023-11-21T06:44:45;100354.41;;;5.93;100.00
63190;BME280;49286;44.460;26.114;2023-11-21T06:47:18;100393.16;;;6.23;100.00
63190;BME280;49286;44.460;26.114;2023-11-21T06:49:45;100341.50;;;5.98;100.00
63190;BME280;49286;44.460;26.114;2023-11-21T06:52:13;100374.03;;;6.21;100.00
63190;BME280;49286;44.460;26.114;2023-11-21T06:54:38;100370.78;;;6.36;100.00
63190;BME280;49286;44.460;26.114;2023-11-21T06:57:04;100396.25;;;6.51;100.00
63190;BME280;49286;44.460;26.114;2023-11-21T06:59:29;100353.44;;;6.38;100.00
63190;BME280;49286;44.460;26.114;2023-11-21T07:01:55;100322.66;;;6.14;100.00
63190;BME280;49286;44.460;26.114;2023-11-21T07:04:20;100355.34;;;6.47;100.00
63190;BME280;49286;44.460;26.114;2023-11-21T07:06:47;100279.75;;;5.93;100.00
63190;BME280;49286;44.460;26.114;2023-11-21T07:09:13;100264.34;;;6.04;100.00
63190;BME280;49286;44.460;26.114;2023-11-21T07:11:39;100381.13;;;6.86;100.00
63190;BME280;49286;44.460;26.114;2023-11-21T07:14:04;100390.88;;;6.98;100.00
63190;BME280;49286;44.460;26.114;2023-11-21T07:16:37;100393.59;;;7.09;100.00
63190;BME280;49286;44.460;26.114;2023-11-21T07:19:07;100281.41;;;6.42;100.00
63190;BME280;49286;44.460;26.114;2023-11-21T07:21:33;100380.28;;;6.87;100.00
63190;BME280;49286;44.460;26.114;2023-11-21T07:24:00;100372.63;;;7.01;100.00
63190;BME280;49286;44.460;26.114;2023-11-21T07:26:26;100289.16;;;6.39;100.00
63190;BME280;49286;44.460;26.114;2023-11-21T07:28:52;100355.75;;;6.74;100.00
63190;BME280;49286;44.460;26.114;2023-11-21T07:31:19;100292.69;;;6.39;100.00
63190;BME280;49286;44.460;26.114;2023-11-21T07:33:47;100413.63;;;7.08;100.00
63190;BME280;49286;44.460;26.114;2023-11-21T07:36:16;100298.72;;;6.38;100.00
63190;BME280;49286;44.460;26.114;2023-11-21T07:38:44;100298.41;;;6.17;100.00
63190;BME280;49286;44.460;26.114;2023-11-21T07:41:10;100371.47;;;6.81;100.00
63190;BME280;49286;44.460;26.114;2023-11-21T07:43:37;100402.38;;;7.12;100.00
63190;BME280;49286;44.460;26.114;2023-11-21T07:46:03;100399.63;;;7.03;100.00
63190;BME280;49286;44.460;26.114;2023-11-21T07:48:31;100363.00;;;6.97;100.00
63190;BME280;49286;44.460;26.114;2023-11-21T07:50:58;100307.22;;;6.86;100.00
63190;BME280;49286;44.460;26.114;2023-11-21T07:53:25;100396.63;;;7.38;100.00
63190;BME280;49286;44.460;26.114;2023-11-21T07:55:56;100386.13;;;7.33;100.00
63190;BME280;49286;44.460;26.114;2023-11-21T07:58:22;100408.16;;;7.57;100.00
63190;BME280;49286;44.460;26.114;2023-11-21T08:00:49;100395.97;;;7.57;100.00
63190;BME280;49286;44.460;26.114;2023-11-21T08:03:15;100383.69;;;7.47;100.00
63190;BME280;49286;44.460;26.114;2023-11-21T08:05:41;100339.09;;;7.29;100.00
63190;BME280;49286;44.460;26.114;2023-11-21T08:08:06;100401.34;;;7.70;100.00
63190;BME280;49286;44.460;26.114;2023-11-21T08:10:33;100361.13;;;7.54;100.00
63190;BME280;49286;44.460;26.114;2023-11-21T08:12:59;100391.06;;;7.82;100.00
63190;BME280;49286;44.460;26.114;2023-11-21T08:15:25;100395.53;;;7.95;100.00
63190;BME280;49286;44.460;26.114;2023-11-21T08:17:50;100322.94;;;7.65;100.00
63190;BME280;49286;44.460;26.114;2023-11-21T08:20:16;100264.34;;;7.37;100.00
63190;BME280;49286;44.460;26.114;2023-11-21T08:22:43;100387.78;;;8.03;100.00
63190;BME280;49286;44.460;26.114;2023-11-21T08:25:09;100387.88;;;8.17;100.00
63190;BME280;49286;44.460;26.114;2023-11-21T08:27:35;100386.13;;;8.13;100.00
63190;BME280;49286;44.460;26.114;2023-11-21T08:30:02;100380.97;;;8.23;100.00
63190;BME280;49286;44.460;26.114;2023-11-21T08:32:28;100301.41;;;7.88;100.00
63190;BME280;49286;44.460;26.114;2023-11-21T08:34:57;100290.16;;;7.96;100.00
63190;BME280;49286;44.460;26.114;2023-11-21T08:37:24;100308.69;;;8.25;100.00
63190;BME280;49286;44.460;26.114;2023-11-21T08:39:49;100250.09;;;7.96;100.00
63190;BME280;49286;44.460;26.114;2023-11-21T08:42:15;100352.69;;;8.79;100.00
63190;BME280;49286;44.460;26.114;2023-11-21T08:44:40;100183.69;;;7.68;100.00
63190;BME280;49286;44.460;26.114;2023-11-21T08:47:07;100358.75;;;8.78;100.00
63190;BME280;49286;44.460;26.114;2023-11-21T08:49:32;100347.50;;;8.90;100.00
63190;BME280;49286;44.460;26.114;2023-11-21T08:51:58;100337.09;;;9.00;100.00
63190;BME280;49286;44.460;26.114;2023-11-21T08:54:25;100231.38;;;8.66;100.00
63190;BME280;49286;44.460;26.114;2023-11-21T08:56:54;100298.78;;;9.22;100.00
63190;BME280;49286;44.460;26.114;2023-11-21T08:59:20;100237.63;;;8.99;100.00
63190;BME280;49286;44.460;26.114;2023-11-21T09:01:47;100315.38;;;9.21;100.00
63190;BME280;49286;44.460;26.114;2023-11-21T09:04:12;100311.13;;;9.62;100.00
63190;BME280;49286;44.460;26.114;2023-11-21T09:06:39;100319.03;;;9.82;100.00
63190;BME280;49286;44.460;26.114;2023-11-21T09:09:05;100299.81;;;9.92;100.00
63190;BME280;49286;44.460;26.114;2023-11-21T09:11:34;100289.34;;;9.93;100.00
63190;BME280;49286;44.460;26.114;2023-11-21T09:14:01;100226.44;;;9.58;100.00
63190;BME280;49286;44.460;26.114;2023-11-21T09:16:26;100250.03;;;9.92;100.00
63190;BME280;49286;44.460;26.114;2023-11-21T09:18:58;100212.47;;;9.71;100.00
63190;BME280;49286;44.460;26.114;2023-11-21T09:21:36;100220.34;;;9.78;100.00
63190;BME280;49286;44.460;26.114;2023-11-21T09:24:01;100201.13;;;9.80;100.00
63190;BME280;49286;44.460;26.114;2023-11-21T09:26:31;100295.50;;;10.40;100.00
63190;BME280;49286;44.460;26.114;2023-11-21T09:28:56;100229.06;;;10.12;100.00
63190;BME280;49286;44.460;26.114;2023-11-21T09:31:22;100280.59;;;10.64;100.00
63190;BME280;49286;44.460;26.114;2023-11-21T09:33:49;100177.50;;;10.09;100.00
63190;BME280;49286;44.460;26.114;2023-11-21T09:36:15;100245.66;;;10.45;100.00
63190;BME280;49286;44.460;26.114;2023-11-21T09:38:41;100229.91;;;10.34;100.00
63190;BME280;49286;44.460;26.114;2023-11-21T09:41:16;100248.19;;;10.69;100.00
63190;BME280;49286;44.460;26.114;2023-11-21T09:43:46;100259.47;;;10.94;100.00
63190;BME280;49286;44.460;26.114;2023-11-21T09:46:13;100172.16;;;10.55;100.00
63190;BME280;49286;44.460;26.114;2023-11-21T09:48:46;100177.34;;;10.71;100.00
63190;BME280;49286;44.460;26.114;2023-11-21T09:51:14;100256.69;;;11.28;100.00
63190;BME280;49286;44.460;26.114;2023-11-21T09:53:44;100257.56;;;11.32;100.00
63190;BME280;49286;44.460;26.114;2023-11-21T09:56:11;100244.41;;;11.30;100.00
63190;BME280;49286;44.460;26.114;2023-11-21T09:58:37;100161.47;;;10.98;100.00
63190;BME280;49286;44.460;26.114;2023-11-21T10:01:03;100132.56;;;10.95;100.00
63190;BME280;49286;44.460;26.114;2023-11-21T10:03:35;100231.13;;;11.56;100.00
63190;BME280;49286;44.460;26.114;2023-11-21T10:06:02;100239.81;;;11.65;100.00
63190;BME280;49286;44.460;26.114;2023-11-21T10:08:31;100230.16;;;11.71;100.00
63190;BME280;49286;44.460;26.114;2023-11-21T10:10:57;100134.25;;;11.10;100.00
63190;BME280;49286;44.460;26.114;2023-11-21T10:13:40;100228.22;;;11.95;100.00
63190;BME280;49286;44.460;26.114;2023-11-21T10:16:07;100132.97;;;11.60;100.00
63190;BME280;49286;44.460;26.114;2023-11-21T10:18:37;100188.56;;;12.16;100.00
63190;BME280;49286;44.460;26.114;2023-11-21T10:21:06;100198.91;;;12.33;100.00
63190;BME280;49286;44.460;26.114;2023-11-21T10:23:31;100210.16;;;12.49;100.00
63190;BME280;49286;44.460;26.114;2023-11-21T10:25:57;100221.69;;;12.37;100.00
63190;BME280;49286;44.460;26.114;2023-11-21T10:28:24;100180.75;;;12.10;100.00
63190;BME280;49286;44.460;26.114;2023-11-21T10:30:51;100150.91;;;12.14;100.00
63190;BME280;49286;44.460;26.114;2023-11-21T10:33:27;100199.56;;;12.54;100.00
63190;BME280;49286;44.460;26.114;2023-11-21T10:35:52;100138.50;;;12.25;100.00
63190;BME280;49286;44.460;26.114;2023-11-21T10:38:20;100199.31;;;12.75;100.00
63190;BME280;49286;44.460;26.114;2023-11-21T10:40:48;100202.56;;;12.97;100.00
63190;BME280;49286;44.460;26.114;2023-11-21T10:43:15;100202.38;;;13.11;100.00
63190;BME280;49286;44.460;26.114;2023-11-21T10:45:42;100114.28;;;12.68;100.00
63190;BME280;49286;44.460;26.114;2023-11-21T10:48:14;100148.25;;;12.87;100.00
63190;BME280;49286;44.460;26.114;2023-11-21T10:50:46;100194.50;;;13.09;100.00
63190;BME280;49286;44.460;26.114;2023-11-21T10:53:12;100197.00;;;13.17;100.00
63190;BME280;49286;44.460;26.114;2023-11-21T10:55:38;100154.38;;;12.91;100.00
63190;BME280;49286;44.460;26.114;2023-11-21T10:58:04;100183.78;;;13.22;100.00
63190;BME280;49286;44.460;26.114;2023-11-21T11:00:32;100118.50;;;12.82;100.00
63190;BME280;49286;44.460;26.114;2023-11-21T11:02:58;100190.94;;;13.10;100.00
63190;BME280;49286;44.460;26.114;2023-11-21T11:05:25;100084.63;;;12.56;100.00
63190;BME280;49286;44.460;26.114;2023-11-21T11:08:05;100076.63;;;12.63;100.00
63190;BME280;49286;44.460;26.114;2023-11-21T11:10:34;100158.72;;;12.92;100.00
63190;BME280;49286;44.460;26.114;2023-11-21T11:13:00;100156.50;;;13.24;100.00
63190;BME280;49286;44.460;26.114;2023-11-21T11:15:27;100069.56;;;12.65;100.00
63190;BME280;49286;44.460;26.114;2023-11-21T11:17:53;100134.72;;;13.13;100.00
63190;BME280;49286;44.460;26.114;2023-11-21T11:20:24;100152.28;;;13.13;100.00
63190;BME280;49286;44.460;26.114;2023-11-21T11:28:29;100153.84;;;13.26;100.00
63190;BME280;49286;44.460;26.114;2023-11-21T11:33:53;100160.06;;;13.20;100.00
63190;BME280;49286;44.460;26.114;2023-11-21T11:36:37;100154.00;;;13.15;100.00
63190;BME280;49286;44.460;26.114;2023-11-21T11:39:28;100160.03;;;13.23;100.00
63190;BME280;49286;44.460;26.114;2023-11-21T11:41:56;100151.56;;;13.01;100.00
63190;BME280;49286;44.460;26.114;2023-11-21T11:47:20;100159.19;;;13.23;100.00
63190;BME280;49286;44.460;26.114;2023-11-21T11:50:12;100145.94;;;13.26;100.00
63190;BME280;49286;44.460;26.114;2023-11-21T11:55:16;100136.47;;;13.14;100.00
63190;BME280;49286;44.460;26.114;2023-11-21T11:57:54;100058.78;;;12.84;100.00
63190;BME280;49286;44.460;26.114;2023-11-21T12:05:22;99970.03;;;12.33;100.00
63190;BME280;49286;44.460;26.114;2023-11-21T12:07:56;100075.03;;;13.10;100.00
63190;BME280;49286;44.460;26.114;2023-11-21T12:10:32;100104.59;;;13.33;100.00
63190;BME280;49286;44.460;26.114;2023-11-21T12:13:00;100095.19;;;13.13;100.00
63190;BME280;49286;44.460;26.114;2023-11-21T12:15:26;100099.34;;;13.29;100.00
63190;BME280;49286;44.460;26.114;2023-11-21T12:17:56;100094.84;;;13.38;100.00
63190;BME280;49286;44.460;26.114;2023-11-21T12:20:23;100121.59;;;13.67;100.00
63190;BME280;49286;44.460;26.114;2023-11-21T12:22:53;100114.78;;;13.54;100.00
63190;BME280;49286;44.460;26.114;2023-11-21T12:25:31;100030.31;;;13.07;100.00
63190;BME280;49286;44.460;26.114;2023-11-21T12:27:58;100091.84;;;13.59;100.00
63190;BME280;49286;44.460;26.114;2023-11-21T12:30:31;100086.00;;;13.90;100.00
63190;BME280;49286;44.460;26.114;2023-11-21T12:33:04;100109.66;;;13.94;100.00
63190;BME280;49286;44.460;26.114;2023-11-21T12:35:33;100026.59;;;13.70;100.00
63190;BME280;49286;44.460;26.114;2023-11-21T12:38:00;100112.88;;;14.12;100.00
63190;BME280;49286;44.460;26.114;2023-11-21T12:40:28;100082.69;;;13.80;100.00
63190;BME280;49286;44.460;26.114;2023-11-21T12:42:59;100087.66;;;13.47;100.00
63190;BME280;49286;44.460;26.114;2023-11-21T12:45:27;100083.41;;;13.39;100.00
63190;BME280;49286;44.460;26.114;2023-11-21T12:48:02;100082.22;;;13.57;100.00
63190;BME280;49286;44.460;26.114;2023-11-21T12:50:33;100012.50;;;13.23;100.00
63190;BME280;49286;44.460;26.114;2023-11-21T12:55:33;100086.03;;;13.39;100.00
63190;BME280;49286;44.460;26.114;2023-11-21T12:58:03;100098.13;;;13.52;100.00
63190;BME280;49286;44.460;26.114;2023-11-21T13:00:42;100091.22;;;13.45;100.00
63190;BME280;49286;44.460;26.114;2023-11-21T13:03:09;99996.38;;;12.91;100.00
63190;BME280;49286;44.460;26.114;2023-11-21T13:05:38;100106.97;;;13.48;100.00
63190;BME280;49286;44.460;26.114;2023-11-21T13:08:06;100084.31;;;13.36;100.00
63190;BME280;49286;44.460;26.114;2023-11-21T13:10:39;100103.59;;;13.40;100.00
63190;BME280;49286;44.460;26.114;2023-11-21T13:13:07;100100.38;;;13.19;100.00
63190;BME280;49286;44.460;26.114;2023-11-21T13:15:53;100098.06;;;12.98;100.00
63190;BME280;49286;44.460;26.114;2023-11-21T13:18:21;100094.59;;;12.97;100.00
63190;BME280;49286;44.460;26.114;2023-11-21T13:20:47;100095.78;;;12.75;100.00
63190;BME280;49286;44.460;26.114;2023-11-21T13:23:13;100057.22;;;12.71;100.00
63190;BME280;49286;44.460;26.114;2023-11-21T13:25:41;100082.63;;;12.73;100.00
63190;BME280;49286;44.460;26.114;2023-11-21T13:28:08;100094.13;;;12.66;100.00
63190;BME280;49286;44.460;26.114;2023-11-21T13:30:35;100006.06;;;12.27;100.00